CYGQ

Geraldton Greenstone Regional Airport

Geraldton, Ontario, Canada
TAF CYGQ 221344Z 2214/2302 VRB03KT P6SM FEW005 OVC060 TEMPO 2214/2216 5SM -RA BR BKN005 FM221600 28007KT P6SM -RA OVC010 TEMPO 2216/2224 5SM -RA BR BKN005 FM230000 35005KT P6SM -SHSNRA BKN020 TEMPO 2300/2302 P6SM NSW BKN025 RMK NXT FCST BY 222000Z
Issued Valid From Valid To
Sep-22 @ 13:44 UTC
(an hour ago)
Sep-22 @ 14:00 UTC
(an hour ago)
Sep-23 @ 02:00 UTC
(in 11 hours)
to
to
to
to
to
to
TAF CYGQ 221344Z 2214/2302 VRB03KT P6SM FEW005 OVC060 TEMPO 2214/2216 5SM -RA BR BKN005 FM221600 28007KT P6SM -RA OVC010 TEMPO 2216/2224 5SM -RA BR BKN005 FM230000 35005KT P6SM -SHSNRA BKN020 TEMPO 2300/2302 P6SM NSW BKN025 RMK NXT FCST BY 222000Z
Issued Sep-22 @ 13:44 UTC
(an hour ago)
Valid From Sep-22 @ 14:00 UTC
(an hour ago)
Valid To Sep-23 @ 02:00 UTC
(in 11 hours)
-
-
-
-
-
-